Dursley Dozen
Skip Navigation Links
12 February 2017
HyperLink
Click on your name for your detailed race data.
Page 1 of 5 (468 items)
Prev
[1]
2
3
4
5
Next
Pos
Bib No
Fav
Share
Print
Name
Gun Time
Chip Time
Category
Cat Pos
Gender
Gen Pos
Club
Pace
1372Chris MCMILLAN1:19:33.41:19:33.0MSen1Male1WESTON AC 9.1 m/hr
2201Andrew GARDINER1:20:30.41:20:29.2M501Male2  8.9 m/hr
35Dan ANDERSON1:20:56.81:20:56.2MSen2Male3DURSLEY RUNNING CLUB 8.9 m/hr
496Edd CHARLTON-WEEDY1:23:41.81:23:41.2MSen3Male4  8.6 m/hr
5174James EVERETT1:23:47.91:23:47.4MSen4Male5DURSLEY RUNNING CLUB 8.6 m/hr
6525James THOMAS1:27:30.81:27:29.9MSen5Male6CIRENCESTER AC 8.2 m/hr
7134Mike CROMPTON1:27:42.01:27:41.2MSen6Male7DURSLEY RUNNING CLUB 8.2 m/hr
878Luke BYRNE1:28:40.81:28:38.4MSen7Male8SWINDON HARRIERS 8.1 m/hr
9394Jonathan NEWEY1:28:50.01:28:49.6M451Male9MALVERN JOGGERS 8.1 m/hr
10279Paul HORSFALL1:28:56.01:28:54.8MSen8Male10CHELTENHAM HARRIERS 8.1 m/hr
11184Robert FORD1:29:22.31:29:22.0MSen9Male11PORTSMOUTH JOGGERS 8.1 m/hr
12157Robert DELLER1:29:40.01:29:39.1MSen10Male12  8.0 m/hr
1314Edward BAILEY1:30:00.21:29:58.2MSen11Male13FELL RUNNERS ASSOCIATION 8.0 m/hr
14287Martin HUMPHREYS1:30:07.41:30:06.7M401Male14STROUD & DISTRICT AC 8.0 m/hr
15554Tom WARD1:30:35.91:30:35.4M402Male15ALMOST ATHLETES 7.9 m/hr
16442David RANSOME1:30:50.91:30:50.6M452Male16  7.9 m/hr
17216Annabel GRANGER1:31:15.61:31:15.2F401Female1BRISTOL & WEST AC 7.9 m/hr
18510Andrew STEPHENS 1:31:18.31:31:16.7M403Male17MONROSS TRAILBLAZERS 7.9 m/hr
19467Adrian SAVERY1:31:56.81:31:50.7MSen12Male18CLAPHAM CHASERS 7.8 m/hr
20175Howard EWAN1:31:58.81:31:56.9MSen13Male19CIRENCESTER AC 7.8 m/hr
2159Johann BREYTENBACH1:32:35.51:32:35.3M404Male20  7.8 m/hr
2264Tim BRITTON1:32:54.41:32:53.7MSen14Male21DURSLEY RUNNING CLUB 7.7 m/hr
23398James NOBLES1:34:16.91:34:14.5MSen15Male22  7.6 m/hr
24160Rob DIXON1:34:48.41:34:46.0MSen16Male23  7.6 m/hr
25273Martin HOLLAMBY1:35:10.61:35:02.1MSen17Male24PEEL ROAD RUNNERS 7.6 m/hr
26384Rob MINTON1:35:36.81:35:36.3M405Male25STRATFORD UPON AVON ATHLETICS CLUB 7.5 m/hr
27260Laurence HEWETSON1:36:14.41:36:12.8M406Male26  7.5 m/hr
2834Neil BENNETT1:36:34.91:36:31.0MSen18Male27  7.5 m/hr
29283Lee HOWARTH1:37:17.51:37:08.1MSen19Male28  7.4 m/hr
30439Niki RADNEDGE 1:37:21.91:37:17.4M407Male29  7.4 m/hr
31288Richard HURDLE1:37:25.91:37:23.8M408Male30CIRENCESTER AC 7.4 m/hr
32512Samuel STONE1:37:44.41:37:43.2MSen20Male31EMERSONS GREEN RUNNING CLUB 7.4 m/hr
33555David WATERS1:38:12.21:38:10.1M409Male32BITTON ROAD RUNNERS 7.3 m/hr
34305Braddan JOHNSON1:38:19.41:38:17.1MSen21Male33  7.3 m/hr
35456Benjamin ROSEDALE1:38:19.71:38:03.2M4010Male34  7.3 m/hr
36113Chris COND1:38:22.41:38:21.5M4011Male35  7.3 m/hr
3750Julian BOON1:38:23.71:38:22.3M453Male36FOREST OF DEAN AC 7.3 m/hr
38385Edward MORRIS1:38:29.71:38:27.0M4012Male37CIRENCESTER AC 7.3 m/hr
39355Daniel LYNCH1:38:31.71:38:31.1MSen22Male38STRATFORD UPON AVON ATHLETICS CLUB 7.3 m/hr
40179Graham FERRIS1:38:39.61:38:31.8M502Male39WITNEY ROAD RUNNERS 7.3 m/hr
41358Jonny MARKS 1:38:58.31:38:51.6MSen23Male40DURSLEY RUNNING CLUB 7.3 m/hr
42537Simon TOOTELL1:39:03.41:38:57.9MSen24Male41WOOTTON RR 7.3 m/hr
43309Matt JOHNSTONE1:39:17.61:39:14.0M4013Male42THORNBURY RUNNING CLUB 7.3 m/hr
44396Wendy NICHOLLS 1:39:21.11:39:19.8F451Female2CIRENCESTER AC 7.2 m/hr
45557Rob WATKINS1:39:25.61:39:19.0M454Male43THORNBURY RUNNING CLUB 7.2 m/hr
46112Guy COLLIS1:40:01.21:39:42.1MSen25Male44  7.2 m/hr
47426Dan PORT1:40:06.11:40:02.1MSen26Male45  7.2 m/hr
48413Mark PARKER1:40:12.81:40:07.7M455Male46TEWKESBURY RC 7.2 m/hr
493Polly AINSLEY1:40:18.01:40:17.0FSen1Female3SOUTHVILLE RUNNING CLUB 7.2 m/hr
50150Mark DAVIN1:40:43.51:40:41.8MSen27Male47KINGSWOOD TRI CLUB 7.1 m/hr
51324Dave KELLY1:40:45.91:40:39.1M503Male48ALMOST ATHLETES 7.1 m/hr
52294Robyn JACKSON1:40:58.71:40:56.9FSen2Female4DURSLEY RUNNING CLUB 7.1 m/hr
5321Peter BALLINGER1:41:06.41:41:01.1M4014Male49TRIATHLON ENGLAND 7.1 m/hr
54501Thomas SMITH1:41:13.91:41:11.4MSen28Male50  7.1 m/hr
55226Simon GRIFFITHS1:41:31.71:41:26.6M504Male51BLACK PEAR JOGGERS 7.1 m/hr
5663Matthew BRITTON1:41:45.21:41:33.4MSen29Male52  7.1 m/hr
57428Lynette PORTER1:41:55.91:41:54.5F501Female5BITTON ROAD RUNNERS 7.1 m/hr
58552John WALSGROVE1:42:22.71:42:18.1M551Male53TRAIL RUNNERS ASSOCIATION 7.0 m/hr
5974Andrew BUSH1:42:24.71:42:21.7MSen30Male54EMERSONS GREEN RUNNING CLUB 7.0 m/hr
60124Neil CORBIERE1:42:44.11:42:41.8MSen31Male55CIRENCESTER AC 7.0 m/hr
61568Chris WILLIAMS1:43:01.61:42:58.1M456Male56EMERSONS GREEN RUNNING CLUB 7.0 m/hr
6272Joe BROWNING1:43:04.71:43:03.2MSen32Male57  7.0 m/hr
6338Wayne BEVAN1:43:56.11:43:50.7MSen33Male58FOREST OF DEAN AC 6.9 m/hr
64542Holly TUGWELL1:44:03.41:44:01.1F351Female6CIRENCESTER AC 6.9 m/hr
65128Andrew COX1:44:04.01:43:52.4M457Male59  6.9 m/hr
66253Ollie HAZEL1:44:35.21:44:27.5MSen34Male60RUNNING SOMEWHERE ELSE 6.9 m/hr
6741Nick BIGGS1:44:41.61:44:34.6M4015Male61  6.9 m/hr
68563Adam WHARTON1:44:47.81:44:41.9M4016Male62  6.9 m/hr
696Clive ANDREWS1:45:34.51:45:28.6M505Male63BLACK PEAR JOGGERS 6.8 m/hr
70290Ionel IANCU1:45:40.51:45:36.9M458Male64CIRENCESTER AC 6.8 m/hr
71585David WOOD1:46:06.11:45:56.6M506Male65DURSLEY RUNNING CLUB 6.8 m/hr
72167Stu DUDFIELD1:46:07.81:45:59.8M459Male66TEWKESBURY RC 6.8 m/hr
73293Kevin JACKSON1:46:16.41:46:14.8M552Male67DURSLEY RUNNING CLUB 6.8 m/hr
74203Sullivan GARDNER1:46:33.61:46:32.3MSen35Male68  6.8 m/hr
75489Andrew SMALL1:46:36.91:46:29.5M4017Male69EMERSONS GREEN RUNNING CLUB 6.8 m/hr
76318Simon JONES1:46:41.11:46:38.7MSen36Male70DURSLEY RUNNING CLUB 6.7 m/hr
77272Tony HOGG1:46:53.91:46:49.1M507Male71WESTON AC 6.7 m/hr
78507Bryan STADDEN1:46:58.21:46:56.0M601Male72BITTON ROAD RUNNERS 6.7 m/hr
7986Shaun CARR1:47:10.11:47:00.6M4018Male73ALMOST ATHLETES 6.7 m/hr
80599Will WYKES1:47:14.31:47:10.2M4019Male74  6.7 m/hr
81441Guy RANAWAKE1:47:23.11:47:10.7M4510Male75  6.7 m/hr
82567Alan WILCOX1:47:32.01:47:22.5M4511Male76BRISTOL & WEST AC 6.7 m/hr
8336Scott BERRY1:47:39.71:47:26.5M4020Male77FOREST OF DEAN AC 6.7 m/hr
84278Rob HOPKINS1:47:48.11:47:48.1M4021Male78THORNBURY RUNNING CLUB 6.7 m/hr
85183Paul FLINN1:48:17.71:48:13.9M553Male79STROUD & DISTRICT AC 6.6 m/hr
86470Damien SCOTT1:48:20.81:48:14.0M4022Male80  6.6 m/hr
8745Andrew BLACKBURN1:48:22.61:48:15.6M4023Male81  6.6 m/hr
88161Nick DONKIN1:48:28.01:48:20.8MSen37Male82  6.6 m/hr
89379Thomas MILLARD1:48:32.21:48:28.3M4512Male83  6.6 m/hr
90562Andy MAXTED1:48:42.81:48:37.1M508Male84PASSION FIT 6.6 m/hr
9158Simon BRASIER1:48:50.01:48:46.9M4024Male85  6.6 m/hr
92505Nick SPICE1:49:04.61:48:43.6MSen38Male86ALMOST ATHLETES 6.6 m/hr
93432Robert PRITCHARD1:49:11.71:48:58.0MSen39Male87MONROSS TRAILBLAZERS 6.6 m/hr
94377Simon MERRICK1:49:15.71:49:05.8M554Male88  6.6 m/hr
9542Nick BILBY1:49:18.71:49:08.1M4025Male89  6.6 m/hr
9693Greg CHANCE1:49:21.61:49:21.6MSen40Male90BRISTOL & WEST AC 6.6 m/hr
9755Matt BRADLEY1:49:24.71:49:21.1MSen41Male91EMERSONS GREEN RUNNING CLUB 6.6 m/hr
98419Steve PETERS1:49:26.11:49:19.4M4513Male92  6.6 m/hr
99499Richard SMITH1:49:27.41:49:25.4MSen42Male93DURSLEY RUNNING CLUB 6.6 m/hr
100540Andrew TRUSWELL1:49:30.11:49:25.6MSen43Male94DURSLEY RUNNING CLUB 6.6 m/hr
Page 1 of 5 (468 items)
Prev
[1]
2
3
4
5
Next
fb

HyperLink Copyright (c) G Vincent, 2016